Time;durP1;ratioP1;P1;durP2;ratioP2;P2;SDS_P1;SDS_P2;PMS_P1;PMS_P2;Temp;Humidity;BMP_temperature;BMP_pressure;BME280_temperature;BME280_humidity;BME280_pressure;Samples;Min_cycle;Max_cycle;Signal;HPM_P1;HPM_P2
2024/02/20 00:00:40;;;;;;;11.57;7.10;;;8.50;99.90;;;;;;5075768;28;20280;-91
2024/02/20 00:03:06;;;;;;;8.70;6.50;;;8.50;99.90;;;;;;5079557;28;20296;-88
2024/02/20 00:05:31;;;;;;;10.53;6.30;;;8.60;99.90;;;;;;5078585;28;20622;-91
2024/02/20 00:08:02;;;;;;;9.87;6.03;;;8.50;99.90;;;;;;5082587;28;20197;-91
2024/02/20 00:10:29;;;;;;;8.13;5.70;;;8.50;99.90;;;;;;5068823;28;20185;-90
2024/02/20 00:13:02;;;;;;;10.33;5.73;;;8.50;99.90;;;;;;5081073;28;20197;-86
2024/02/20 00:15:27;;;;;;;7.83;5.53;;;8.40;99.90;;;;;;5076464;28;20169;-90
2024/02/20 00:17:53;;;;;;;6.97;5.33;;;8.40;99.90;;;;;;5081173;28;20185;-91
2024/02/20 00:20:19;;;;;;;7.27;5.10;;;8.40;99.90;;;;;;5074606;28;20514;-90
2024/02/20 00:22:51;;;;;;;6.80;5.20;;;8.40;99.90;;;;;;5070999;28;20571;-91
2024/02/20 00:25:19;;;;;;;7.72;4.95;;;8.40;99.90;;;;;;5079288;28;20179;-91
2024/02/20 00:27:45;;;;;;;11.98;5.93;;;8.40;99.90;;;;;;5082236;28;20197;-91
2024/02/20 00:30:11;;;;;;;8.48;5.20;;;8.40;99.90;;;;;;5082333;28;20189;-92
2024/02/20 00:32:43;;;;;;;8.40;5.03;;;8.30;99.90;;;;;;5081646;28;20486;-90
2024/02/20 00:35:09;;;;;;;6.50;4.90;;;8.30;99.90;;;;;;5080804;28;20187;-91
2024/02/20 00:37:35;;;;;;;6.43;4.00;;;8.40;99.90;;;;;;5084809;28;20181;-89
2024/02/20 00:40:00;;;;;;;5.27;3.27;;;8.40;99.90;;;;;;5082232;28;20275;-91
2024/02/20 00:42:26;;;;;;;4.03;2.67;;;8.40;99.90;;;;;;5075818;28;20235;-91
2024/02/20 00:44:52;;;;;;;4.10;2.50;;;8.40;99.90;;;;;;5083252;28;20599;-91
2024/02/20 00:47:18;;;;;;;5.13;2.40;;;8.50;99.90;;;;;;5083015;28;20184;-91
2024/02/20 00:49:43;;;;;;;5.90;2.53;;;8.40;99.90;;;;;;5084859;28;20190;-91
2024/02/20 00:52:09;;;;;;;4.77;2.87;;;8.40;99.90;;;;;;5084981;28;20184;-90
2024/02/20 00:54:40;;;;;;;4.23;2.87;;;8.40;99.90;;;;;;5074278;28;20627;-90
2024/02/20 00:57:06;;;;;;;4.87;2.20;;;8.40;99.90;;;;;;5083089;28;20173;-91
2024/02/20 00:59:32;;;;;;;3.83;2.43;;;8.30;99.90;;;;;;5081752;28;20215;-91
2024/02/20 01:01:58;;;;;;;4.67;2.33;;;8.30;99.90;;;;;;5079397;28;20236;-93
2024/02/20 01:04:28;;;;;;;4.23;2.30;;;8.30;99.90;;;;;;5079705;28;20193;-90
2024/02/20 01:06:53;;;;;;;2.63;1.90;;;8.30;99.90;;;;;;5085179;28;20196;-91
2024/02/20 01:09:19;;;;;;;4.23;1.70;;;8.30;99.90;;;;;;5086267;28;20196;-92
2024/02/20 01:11:47;;;;;;;3.50;1.50;;;8.30;99.90;;;;;;5071612;28;20185;-91
2024/02/20 01:14:13;;;;;;;2.50;1.00;;;8.20;99.90;;;;;;5076454;28;20200;-92
2024/02/20 01:16:39;;;;;;;1.27;0.90;;;8.20;99.90;;;;;;5076738;28;20192;-90
2024/02/20 01:19:04;;;;;;;1.43;0.73;;;8.20;99.90;;;;;;5077386;28;20200;-91
2024/02/20 01:21:30;;;;;;;3.27;1.00;;;8.10;99.90;;;;;;5504077;22;20680;-92
2024/02/20 01:23:56;;;;;;;3.23;1.00;;;8.10;99.90;;;;;;5029328;28;20191;-91
2024/02/20 01:26:22;;;;;;;4.47;1.07;;;8.10;99.90;;;;;;5035864;28;20716;-91
2024/02/20 01:28:48;;;;;;;2.00;1.03;;;8.00;99.90;;;;;;5035915;28;20256;-91
2024/02/20 01:31:17;;;;;;;3.33;1.37;;;8.00;99.90;;;;;;5035262;28;20269;-89
2024/02/20 01:33:43;;;;;;;2.87;1.13;;;8.00;99.90;;;;;;5036362;28;20186;-91
2024/02/20 01:36:09;;;;;;;5.97;1.13;;;8.00;99.90;;;;;;5035443;28;20186;-89
2024/02/20 01:38:35;;;;;;;2.83;1.57;;;7.90;99.90;;;;;;5035707;28;20193;-91
2024/02/20 01:41:02;;;;;;;5.10;1.50;;;7.90;99.90;;;;;;5036324;28;20183;-91
2024/02/20 01:43:28;;;;;;;3.57;1.50;;;7.90;99.90;;;;;;5034104;28;20593;-91
2024/02/20 01:45:54;;;;;;;2.43;1.33;;;7.90;99.90;;;;;;5031062;28;20183;-91
2024/02/20 01:48:23;;;;;;;4.50;1.37;;;7.90;99.90;;;;;;5036097;28;20224;-90
2024/02/20 01:50:49;;;;;;;3.13;1.43;;;8.00;99.90;;;;;;5034681;28;20194;-89
2024/02/20 01:53:15;;;;;;;3.73;1.40;;;7.90;99.90;;;;;;5030997;28;20533;-91
2024/02/20 01:55:41;;;;;;;3.80;1.23;;;7.90;99.90;;;;;;5035505;28;20218;-91
2024/02/20 01:58:07;;;;;;;2.13;1.20;;;7.80;99.90;;;;;;5035120;28;20205;-91
2024/02/20 02:00:33;;;;;;;4.87;1.30;;;7.90;99.90;;;;;;5036504;28;20244;-90
2024/02/20 02:02:59;;;;;;;2.93;1.20;;;7.80;99.90;;;;;;5034384;28;20233;-91
2024/02/20 02:05:25;;;;;;;2.50;1.10;;;7.90;99.90;;;;;;5036930;28;20190;-90
2024/02/20 02:07:50;;;;;;;3.87;1.07;;;7.90;99.90;;;;;;5035560;28;20190;-90
2024/02/20 02:10:16;;;;;;;2.13;0.80;;;7.90;99.90;;;;;;5035050;28;20182;-90
2024/02/20 02:12:42;;;;;;;3.10;1.23;;;7.90;99.90;;;;;;5035678;28;20269;-91
2024/02/20 02:15:08;;;;;;;4.90;1.30;;;7.80;99.90;;;;;;5034218;28;20664;-91
2024/02/20 02:17:34;;;;;;;3.00;1.30;;;7.80;99.90;;;;;;5036450;28;20212;-91
2024/02/20 02:20:00;;;;;;;2.30;1.20;;;7.80;99.90;;;;;;5029388;28;20210;-91
2024/02/20 02:22:28;;;;;;;5.10;1.33;;;7.80;99.90;;;;;;5034904;28;20226;-89
2024/02/20 02:24:53;;;;;;;5.57;1.33;;;7.80;99.90;;;;;;5035551;28;20276;-91
2024/02/20 02:27:19;;;;;;;3.77;1.70;;;7.90;99.90;;;;;;5036485;28;20209;-90
2024/02/20 02:29:45;;;;;;;7.37;1.73;;;7.90;99.90;;;;;;5036240;28;20191;-90
2024/02/20 02:32:10;;;;;;;6.33;2.03;;;7.90;99.90;;;;;;5035348;28;20186;-90
2024/02/20 02:34:49;;;;;;;5.30;1.50;;;7.90;99.90;;;;;;5035504;28;20186;-91
2024/02/20 02:37:15;;;;;;;7.57;1.50;;;7.80;99.90;;;;;;5028687;28;20183;-91
2024/02/20 02:39:41;;;;;;;5.37;1.90;;;7.70;99.90;;;;;;5034787;28;20198;-90
2024/02/20 02:42:06;;;;;;;7.93;1.57;;;7.70;99.90;;;;;;5032568;28;20293;-91
2024/02/20 02:44:33;;;;;;;4.47;1.63;;;7.70;99.90;;;;;;5033923;28;20217;-90
2024/02/20 02:46:59;;;;;;;6.53;1.70;;;7.70;99.90;;;;;;5035907;28;20187;-91
2024/02/20 02:49:25;;;;;;;4.33;1.73;;;7.70;99.90;;;;;;5028501;28;20677;-89
2024/02/20 02:51:51;;;;;;;9.10;1.67;;;7.70;99.90;;;;;;5031005;28;20194;-89
2024/02/20 02:54:17;;;;;;;8.10;1.50;;;7.60;99.90;;;;;;5035778;28;20197;-90
2024/02/20 02:56:44;;;;;;;6.17;1.80;;;7.60;99.90;;;;;;5032549;28;20209;-91
2024/02/20 02:59:09;;;;;;;5.37;1.60;;;7.60;99.90;;;;;;5030232;28;20532;-90
2024/02/20 03:01:35;;;;;;;5.30;1.43;;;7.60;99.90;;;;;;5034251;28;20186;-90
2024/02/20 03:04:09;;;;;;;4.87;1.67;;;7.60;99.90;;;;;;5031035;28;20187;-91
2024/02/20 03:06:40;;;;;;;6.90;1.50;;;7.60;99.90;;;;;;5034916;28;20178;-91
2024/02/20 03:09:12;;;;;;;5.13;1.30;;;7.60;99.90;;;;;;5035694;28;20191;-91
2024/02/20 03:11:42;;;;;;;4.93;1.67;;;7.60;99.90;;;;;;5026510;28;20250;-91
2024/02/20 03:14:14;;;;;;;7.33;1.50;;;7.60;99.90;;;;;;5035430;28;20622;-91
2024/02/20 03:16:40;;;;;;;5.13;1.53;;;7.60;99.90;;;;;;5027180;28;20190;-90
2024/02/20 03:19:06;;;;;;;6.60;1.60;;;7.60;99.90;;;;;;5035420;28;20187;-91
2024/02/20 03:21:32;;;;;;;4.03;1.20;;;7.60;99.90;;;;;;5033306;28;20687;-90
2024/02/20 03:23:59;;;;;;;6.20;1.37;;;7.60;99.90;;;;;;5035206;28;20198;-90
2024/02/20 03:26:26;;;;;;;9.40;1.50;;;7.60;99.90;;;;;;5034397;28;20186;-91
2024/02/20 03:28:52;;;;;;;6.43;1.70;;;7.50;99.90;;;;;;5035272;28;20183;-90
2024/02/20 03:31:18;;;;;;;5.07;1.50;;;7.50;99.90;;;;;;5034975;28;20179;-90
2024/02/20 03:33:44;;;;;;;6.77;1.60;;;7.50;99.90;;;;;;5030853;28;20246;-91
2024/02/20 03:36:10;;;;;;;7.27;1.93;;;7.50;99.90;;;;;;5029960;28;20186;-91
2024/02/20 03:38:36;;;;;;;6.87;2.07;;;7.40;99.90;;;;;;5026869;28;20253;-91
2024/02/20 03:41:02;;;;;;;9.40;2.33;;;7.40;99.90;;;;;;5033077;28;20182;-90
2024/02/20 03:43:28;;;;;;;6.53;2.17;;;7.50;99.90;;;;;;5033952;28;20902;-91
2024/02/20 03:45:54;;;;;;;4.83;1.90;;;7.50;99.90;;;;;;5034776;28;20198;-91
2024/02/20 03:48:20;;;;;;;6.07;1.90;;;7.50;99.90;;;;;;5034140;28;20194;-91
2024/02/20 03:50:45;;;;;;;6.27;1.80;;;7.50;99.90;;;;;;5026378;28;20201;-91
2024/02/20 03:53:11;;;;;;;7.23;2.10;;;7.50;99.90;;;;;;5029128;28;20186;-92
2024/02/20 03:55:50;;;;;;;8.80;2.40;;;7.50;99.90;;;;;;5034782;28;20199;-91
2024/02/20 03:58:16;;;;;;;8.27;2.23;;;7.50;99.90;;;;;;5034972;28;20218;-91
2024/02/20 04:00:42;;;;;;;6.53;1.90;;;7.60;99.90;;;;;;5023390;28;20227;-91
2024/02/20 04:03:07;;;;;;;7.33;2.53;;;7.50;99.90;;;;;;5027276;28;20296;-90
2024/02/20 04:05:50;;;;;;;11.27;2.83;;;7.60;99.90;;;;;;5027426;28;20569;-91
2024/02/20 04:08:15;;;;;;;7.93;2.10;;;7.60;99.90;;;;;;5033998;28;20628;-90
2024/02/20 04:10:41;;;;;;;7.63;2.23;;;7.50;99.90;;;;;;5027556;28;20200;-91
2024/02/20 04:13:07;;;;;;;9.87;2.80;;;7.50;99.90;;;;;;5031206;28;20186;-91
2024/02/20 04:15:36;;;;;;;9.57;2.50;;;7.50;99.90;;;;;;5032618;28;20186;-92
2024/02/20 04:18:02;;;;;;;12.60;2.43;;;7.50;99.90;;;;;;5034535;28;20201;-91
2024/02/20 04:20:28;;;;;;;7.53;2.47;;;7.40;99.90;;;;;;5026020;28;20194;-91
2024/02/20 04:22:54;;;;;;;8.07;2.60;;;7.40;99.90;;;;;;5033038;28;20319;-90
2024/02/20 04:25:22;;;;;;;13.77;3.00;;;7.40;99.90;;;;;;5026326;28;20186;-90
2024/02/20 04:27:48;;;;;;;9.57;2.33;;;7.50;99.90;;;;;;5023223;28;20190;-91
2024/02/20 04:30:14;;;;;;;13.90;3.33;;;7.50;99.90;;;;;;5034332;28;20681;-91
2024/02/20 04:32:39;;;;;;;11.10;3.23;;;7.40;99.90;;;;;;5033532;28;20218;-91
2024/02/20 04:35:18;;;;;;;12.53;2.80;;;7.40;99.90;;;;;;5034575;28;20178;-90
2024/02/20 04:37:44;;;;;;;10.93;3.50;;;7.40;99.90;;;;;;5029534;28;20182;-91
2024/02/20 04:40:11;;;;;;;10.13;2.77;;;7.50;99.90;;;;;;5030204;28;20285;-91
2024/02/20 04:42:36;;;;;;;11.70;3.17;;;7.40;99.90;;;;;;5034353;28;20317;-90
2024/02/20 04:45:05;;;;;;;14.00;3.20;;;7.40;99.90;;;;;;5033145;28;20209;-90
2024/02/20 04:47:30;;;;;;;19.77;3.63;;;7.40;99.90;;;;;;5034169;28;20699;-90
2024/02/20 04:49:56;;;;;;;13.70;2.87;;;7.40;99.90;;;;;;5025689;28;20186;-90
2024/02/20 04:52:23;;;;;;;14.83;3.53;;;7.40;99.90;;;;;;5033600;28;20281;-89
2024/02/20 04:54:56;;;;;;;17.27;3.80;;;7.40;99.90;;;;;;5025253;28;20175;-90
2024/02/20 04:57:21;;;;;;;17.67;3.10;;;7.40;99.90;;;;;;5032990;28;20190;-86
2024/02/20 04:59:47;;;;;;;15.87;3.40;;;7.40;99.90;;;;;;5025130;28;20240;-90
2024/02/20 05:02:13;;;;;;;20.17;3.60;;;7.40;99.90;;;;;;5033794;28;20268;-90
2024/02/20 05:04:41;;;;;;;15.50;2.83;;;7.40;99.90;;;;;;5024351;28;20197;-90
2024/02/20 05:07:07;;;;;;;18.43;3.07;;;7.50;99.90;;;;;;5033056;28;20232;-90
2024/02/20 05:09:32;;;;;;;24.90;3.43;;;7.50;99.90;;;;;;5025183;28;20520;-90
2024/02/20 05:11:59;;;;;;;16.67;3.03;;;7.50;99.90;;;;;;5031409;28;20202;-90
2024/02/20 05:14:25;;;;;;;16.80;3.50;;;7.40;99.90;;;;;;5034487;28;20515;-90
2024/02/20 05:16:50;;;;;;;18.50;2.97;;;7.40;99.90;;;;;;5025488;28;20191;-90
2024/02/20 05:19:16;;;;;;;15.77;2.83;;;7.40;99.90;;;;;;5025447;28;20675;-90
2024/02/20 05:21:42;;;;;;;13.00;2.60;;;7.40;99.90;;;;;;5032889;28;20300;-91
2024/02/20 05:24:08;;;;;;;17.97;3.13;;;7.40;99.90;;;;;;5024272;28;20281;-91
2024/02/20 05:26:35;;;;;;;17.20;3.83;;;7.40;99.90;;;;;;5026242;28;20178;-90
2024/02/20 05:29:01;;;;;;;11.43;2.63;;;7.50;99.90;;;;;;5033026;28;20306;-90
2024/02/20 05:31:28;;;;;;;17.80;3.03;;;7.50;99.90;;;;;;5033397;28;20667;-90
2024/02/20 05:33:58;;;;;;;19.23;3.10;;;7.40;99.90;;;;;;5024014;28;20613;-91
2024/02/20 05:36:29;;;;;;;21.67;3.60;;;7.40;99.90;;;;;;5033329;28;20233;-90
2024/02/20 05:38:59;;;;;;;24.33;3.67;;;7.50;99.90;;;;;;5025227;28;20265;-91
2024/02/20 05:41:26;;;;;;;18.10;3.20;;;7.40;99.90;;;;;;5029584;28;20199;-90
2024/02/20 05:43:57;;;;;;;17.37;3.33;;;7.30;99.90;;;;;;5032728;28;20629;-90
2024/02/20 05:46:34;;;;;;;16.37;3.33;;;7.30;99.90;;;;;;5033170;28;20187;-90
2024/02/20 05:49:03;;;;;;;16.87;3.80;;;7.30;99.90;;;;;;5033256;28;20606;-89
2024/02/20 05:51:39;;;;;;;23.27;3.23;;;7.30;99.90;;;;;;5028201;28;20191;-91
2024/02/20 05:54:05;;;;;;;19.27;3.07;;;7.30;99.90;;;;;;5037022;28;20190;-91
2024/02/20 05:56:32;;;;;;;21.10;4.00;;;7.30;99.90;;;;;;5027336;28;20581;-91
2024/02/20 05:58:58;;;;;;;19.33;3.70;;;7.30;99.90;;;;;;5025307;28;20194;-91
2024/02/20 06:01:24;;;;;;;14.80;3.10;;;7.30;99.90;;;;;;5030456;28;20182;-90
2024/02/20 06:03:50;;;;;;;25.23;3.90;;;7.20;99.90;;;;;;5036410;28;20633;-90
2024/02/20 06:06:15;;;;;;;24.13;4.67;;;7.30;99.90;;;;;;5036494;28;20194;-90
2024/02/20 06:08:44;;;;;;;28.37;4.37;;;7.20;99.90;;;;;;5035879;28;20201;-91
2024/02/20 06:11:18;;;;;;;24.73;3.93;;;7.20;99.90;;;;;;5035825;28;20186;-90
2024/02/20 06:13:44;;;;;;;22.10;3.70;;;7.20;99.90;;;;;;5025493;28;20194;-91
2024/02/20 06:16:25;;;;;;;19.20;3.60;;;7.20;99.90;;;;;;5032561;28;20262;-90
2024/02/20 06:18:52;;;;;;;25.27;4.67;;;7.10;99.90;;;;;;5045053;28;20317;-89
2024/02/20 06:21:17;;;;;;;22.23;4.30;;;7.10;99.90;;;;;;5028011;28;20249;-89
2024/02/20 06:23:43;;;;;;;28.57;4.60;;;7.10;99.90;;;;;;5027489;28;20301;-91
2024/02/20 06:26:18;;;;;;;34.27;5.80;;;7.10;99.90;;;;;;5031049;28;20187;-91
2024/02/20 06:28:44;;;;;;;27.40;4.67;;;7.10;99.90;;;;;;5036053;28;20197;-90
2024/02/20 06:31:10;;;;;;;26.07;4.53;;;7.10;99.90;;;;;;5032383;28;20545;-91
2024/02/20 06:33:35;;;;;;;25.97;5.00;;;7.10;99.90;;;;;;5036051;28;20182;-91
2024/02/20 06:36:03;;;;;;;26.67;4.37;;;7.10;99.90;;;;;;5028068;28;20232;-91
2024/02/20 06:38:31;;;;;;;33.33;5.43;;;7.20;99.90;;;;;;5027682;28;20237;-90
2024/02/20 06:40:59;;;;;;;26.30;4.97;;;7.10;99.90;;;;;;5034782;28;20278;-91
2024/02/20 06:43:25;;;;;;;26.87;4.03;;;7.10;99.90;;;;;;5027529;28;20214;-90
2024/02/20 06:45:53;;;;;;;32.67;5.30;;;7.10;99.90;;;;;;5035897;28;20256;-89
2024/02/20 06:48:20;;;;;;;23.73;4.97;;;7.00;99.90;;;;;;5027782;28;20183;-89
2024/02/20 06:50:46;;;;;;;22.83;4.07;;;7.00;99.90;;;;;;5035500;28;20273;-90
2024/02/20 06:53:11;;;;;;;26.10;4.20;;;7.00;99.90;;;;;;5028004;28;20640;-90
2024/02/20 06:55:40;;;;;;;40.47;5.13;;;7.00;99.90;;;;;;5026644;28;20277;-90
2024/02/20 06:58:06;;;;;;;36.30;5.77;;;7.10;99.90;;;;;;5027536;28;20203;-90
2024/02/20 07:00:32;;;;;;;26.77;4.57;;;7.10;99.90;;;;;;5031921;28;20194;-90
2024/02/20 07:02:57;;;;;;;27.67;5.00;;;7.10;99.90;;;;;;5035465;28;20229;-90
2024/02/20 07:05:23;;;;;;;32.47;5.57;;;7.00;99.90;;;;;;5035501;28;20186;-89
2024/02/20 07:07:52;;;;;;;31.63;4.90;;;7.10;99.90;;;;;;5035793;28;20206;-90
2024/02/20 07:10:18;;;;;;;37.07;4.93;;;7.10;99.90;;;;;;5034713;28;20202;-90
2024/02/20 07:12:44;;;;;;;26.37;5.00;;;7.10;99.90;;;;;;5027296;28;20285;-90
2024/02/20 07:15:10;;;;;;;26.83;5.40;;;7.10;99.90;;;;;;5035349;28;20274;-90
2024/02/20 07:17:37;;;;;;;31.97;5.67;;;7.10;99.90;;;;;;5036304;28;20186;-90
2024/02/20 07:20:03;;;;;;;25.90;4.63;;;7.10;99.90;;;;;;5034459;28;20625;-91
2024/02/20 07:22:32;;;;;;;37.67;5.50;;;7.10;99.90;;;;;;5026365;28;20272;-91
2024/02/20 07:24:58;;;;;;;32.83;4.83;;;7.00;99.90;;;;;;5035849;28;20217;-91
2024/02/20 07:27:25;;;;;;;29.23;5.03;;;7.00;99.90;;;;;;5034957;28;20183;-90
2024/02/20 07:29:51;;;;;;;29.97;5.17;;;7.10;99.90;;;;;;5034950;28;20194;-89
2024/02/20 07:32:16;;;;;;;30.57;5.63;;;7.20;99.90;;;;;;5033112;28;20190;-90
2024/02/20 07:34:45;;;;;;;27.70;4.63;;;7.20;99.90;;;;;;5032495;28;20186;-91
2024/02/20 07:37:13;;;;;;;35.60;5.60;;;7.10;99.90;;;;;;5034319;28;20277;-91
2024/02/20 07:39:39;;;;;;;35.30;6.73;;;7.20;99.90;;;;;;5034859;28;20190;-91
2024/02/20 07:42:07;;;;;;;34.83;5.27;;;7.20;99.90;;;;;;5028602;28;20598;-84
2024/02/20 07:44:34;;;;;;;46.03;6.33;;;7.20;99.90;;;;;;5028021;28;20746;-83
2024/02/20 07:47:00;;;;;;;28.87;4.87;;;7.20;99.90;;;;;;5030923;28;20187;-84
2024/02/20 07:49:25;;;;;;;32.33;5.47;;;7.10;99.90;;;;;;5026926;28;20507;-82
2024/02/20 07:51:51;;;;;;;31.37;5.90;;;7.20;99.90;;;;;;5033497;28;20616;-83
2024/02/20 07:54:17;;;;;;;31.27;5.47;;;7.20;99.90;;;;;;5031026;28;20182;-84
2024/02/20 07:56:43;;;;;;;34.53;5.20;;;7.30;99.90;;;;;;5032977;28;20190;-83
2024/02/20 07:59:10;;;;;;;29.77;4.90;;;7.30;99.90;;;;;;5033650;28;20185;-84
2024/02/20 08:01:36;;;;;;;33.23;5.40;;;7.30;99.90;;;;;;5030693;28;20183;-85
2024/02/20 08:04:02;;;;;;;30.33;5.23;;;7.30;99.90;;;;;;5033255;28;20186;-84
2024/02/20 08:06:28;;;;;;;27.07;4.67;;;7.30;99.90;;;;;;5032108;28;20198;-86
2024/02/20 08:08:54;;;;;;;36.53;5.30;;;7.40;99.90;;;;;;5025481;28;20669;-85
2024/02/20 08:11:19;;;;;;;35.77;5.50;;;7.40;99.90;;;;;;5035882;28;20622;-88
2024/02/20 08:13:47;;;;;;;24.50;5.20;;;7.40;99.90;;;;;;5031524;28;20182;-87
2024/02/20 08:16:14;;;;;;;31.03;5.40;;;7.40;99.90;;;;;;5028049;28;20199;-83
2024/02/20 08:18:40;;;;;;;33.13;6.93;;;7.40;99.90;;;;;;5033787;28;20182;-84
2024/02/20 08:21:07;;;;;;;31.13;5.57;;;7.40;99.90;;;;;;5030903;28;20222;-84
2024/02/20 08:23:34;;;;;;;34.67;6.23;;;7.50;99.90;;;;;;5033542;28;20226;-83
2024/02/20 08:26:02;;;;;;;36.60;6.73;;;7.40;99.90;;;;;;5026280;28;20184;-84
2024/02/20 08:28:28;;;;;;;35.93;5.70;;;7.50;99.90;;;;;;5031818;28;20208;-84
2024/02/20 08:30:54;;;;;;;35.53;5.03;;;7.50;99.90;;;;;;5025171;28;20627;-84
2024/02/20 08:33:19;;;;;;;27.07;4.93;;;7.50;99.90;;;;;;5034318;28;20189;-85
2024/02/20 08:35:45;;;;;;;31.43;5.60;;;7.40;99.90;;;;;;5029201;28;20625;-86
2024/02/20 08:38:16;;;;;;;36.37;6.13;;;7.50;99.90;;;;;;5029288;28;20218;-84
2024/02/20 08:40:42;;;;;;;33.20;5.87;;;7.60;99.90;;;;;;5023260;28;20199;-84
2024/02/20 08:43:08;;;;;;;28.40;5.07;;;7.70;99.90;;;;;;5028192;28;20248;-85
2024/02/20 08:45:34;;;;;;;24.43;5.60;;;7.70;99.90;;;;;;5026717;28;20187;-85
2024/02/20 08:48:01;;;;;;;33.53;5.60;;;7.70;99.90;;;;;;5029391;28;20651;-87
2024/02/20 08:50:27;;;;;;;30.03;5.97;;;7.70;99.90;;;;;;5032383;28;20187;-87
2024/02/20 08:52:56;;;;;;;33.43;5.03;;;7.80;99.90;;;;;;5029273;28;20532;-85
2024/02/20 08:55:22;;;;;;;39.37;5.67;;;7.80;99.90;;;;;;5032770;28;20277;-86
2024/02/20 08:57:48;;;;;;;28.33;5.40;;;7.90;99.90;;;;;;5025514;28;20194;-86
2024/02/20 09:00:16;;;;;;;40.23;6.30;;;8.00;99.90;;;;;;5033200;28;20243;-86
2024/02/20 09:02:42;;;;;;;32.20;5.57;;;8.00;99.90;;;;;;5025532;28;20218;-87
2024/02/20 09:05:11;;;;;;;37.17;5.73;;;7.90;99.90;;;;;;5027536;28;20182;-86
2024/02/20 09:07:40;;;;;;;26.90;4.67;;;7.90;99.90;;;;;;5030064;28;20278;-84
2024/02/20 09:10:07;;;;;;;28.60;5.53;;;7.80;99.90;;;;;;5033356;28;20179;-86
2024/02/20 09:12:34;;;;;;;28.90;5.53;;;7.70;99.90;;;;;;5034410;28;20178;-86
2024/02/20 09:15:03;;;;;;;39.57;6.30;;;7.70;99.90;;;;;;5033278;28;20183;-86
2024/02/20 09:17:30;;;;;;;30.37;5.47;;;7.70;99.90;;;;;;5033428;28;20183;-86
2024/02/20 09:19:56;;;;;;;34.90;5.47;;;7.70;99.90;;;;;;5030870;28;20202;-86
2024/02/20 09:22:21;;;;;;;38.23;7.07;;;7.70;99.90;;;;;;5029433;28;20693;-86
2024/02/20 09:24:47;;;;;;;27.23;5.67;;;7.60;99.90;;;;;;5031839;28;20193;-85
2024/02/20 09:27:13;;;;;;;31.17;5.33;;;7.60;99.90;;;;;;5034601;28;20493;-85
2024/02/20 09:29:39;;;;;;;41.37;6.20;;;7.60;99.90;;;;;;5035561;28;20656;-85
2024/02/20 09:32:05;;;;;;;34.93;6.67;;;7.70;99.90;;;;;;5038256;28;20260;-90
2024/02/20 09:34:31;;;;;;;28.83;5.67;;;7.80;99.90;;;;;;5036778;28;20197;-87
2024/02/20 09:36:57;;;;;;;31.90;6.43;;;7.90;99.90;;;;;;5036291;28;20269;-84
2024/02/20 09:39:23;;;;;;;29.60;5.83;;;7.90;99.90;;;;;;5034416;28;20218;-86
2024/02/20 09:41:52;;;;;;;31.43;5.70;;;7.90;99.90;;;;;;5028000;28;20232;-86
2024/02/20 09:44:19;;;;;;;30.07;5.60;;;7.90;99.90;;;;;;5036194;28;20194;-86
2024/02/20 09:46:55;;;;;;;26.73;5.53;;;7.90;99.90;;;;;;5037665;28;20257;-86
2024/02/20 09:49:23;;;;;;;38.20;5.70;;;7.90;99.90;;;;;;5028644;28;20185;-86
2024/02/20 09:51:49;;;;;;;35.17;6.37;;;8.10;99.90;;;;;;5037231;28;20178;-85
2024/02/20 09:54:16;;;;;;;34.22;5.47;;;8.10;99.90;;;;;;5033957;28;20182;-84
2024/02/20 09:56:43;;;;;;;30.73;4.83;;;8.20;99.90;;;;;;5034228;28;20179;-85
2024/02/20 09:59:11;;;;;;;29.27;5.27;;;8.30;99.90;;;;;;5024011;28;20206;-85
2024/02/20 10:01:38;;;;;;;29.60;4.80;;;8.30;99.90;;;;;;5034903;28;20202;-84
2024/02/20 10:04:08;;;;;;;35.07;6.20;;;8.20;99.90;;;;;;5034254;28;20198;-85
2024/02/20 10:06:34;;;;;;;34.20;5.73;;;8.20;99.90;;;;;;5032571;28;20183;-85
2024/02/20 10:09:01;;;;;;;32.57;6.67;;;8.10;99.90;;;;;;5035624;28;20183;-84
2024/02/20 10:11:27;;;;;;;30.63;5.75;;;8.10;99.90;;;;;;5033406;28;20672;-85
2024/02/20 10:13:55;;;;;;;31.17;5.40;;;8.10;99.90;;;;;;5030400;28;20333;-84
2024/02/20 10:16:24;;;;;;;26.87;5.60;;;8.10;99.90;;;;;;5031370;28;20715;-85
2024/02/20 10:18:57;;;;;;;41.97;7.37;;;8.10;99.90;;;;;;5029655;28;20183;-84
2024/02/20 10:21:24;;;;;;;26.53;5.67;;;8.20;99.90;;;;;;5034761;28;20288;-85
2024/02/20 10:24:03;;;;;;;35.17;6.23;;;8.20;99.90;;;;;;5024181;28;20260;-84
2024/02/20 10:26:37;;;;;;;28.83;6.13;;;8.30;99.90;;;;;;5036388;28;20190;-85
2024/02/20 10:29:03;;;;;;;26.73;5.03;;;8.20;99.90;;;;;;5033669;28;20247;-85
2024/02/20 10:31:31;;;;;;;27.30;5.53;;;8.30;99.90;;;;;;5034736;28;20182;-85
2024/02/20 10:33:58;;;;;;;25.80;5.13;;;8.40;99.90;;;;;;5026996;28;20220;-86
2024/02/20 10:36:25;;;;;;;30.37;5.37;;;8.60;99.90;;;;;;5034060;28;20190;-84
2024/02/20 10:39:07;;;;;;;33.53;5.77;;;8.60;99.90;;;;;;5028348;28;20187;-85
2024/02/20 10:41:33;;;;;;;28.05;5.70;;;8.70;99.90;;;;;;5034431;28;20186;-85
2024/02/20 10:43:59;;;;;;;28.10;5.73;;;8.80;99.90;;;;;;5030494;28;20210;-85
2024/02/20 10:46:35;;;;;;;27.60;5.93;;;8.90;99.90;;;;;;5028326;28;20187;-85
2024/02/20 10:49:05;;;;;;;28.58;6.15;;;8.90;99.90;;;;;;5030003;28;20178;-84
2024/02/20 10:51:32;;;;;;;29.63;6.05;;;8.80;99.90;;;;;;5033011;28;20229;-85
2024/02/20 10:54:02;;;;;;;33.10;7.20;;;8.80;99.90;;;;;;5028269;28;20638;-84
2024/02/20 10:56:30;;;;;;;34.00;6.13;;;8.70;99.90;;;;;;5032785;28;20622;-85
2024/02/20 10:58:56;;;;;;;29.93;6.50;;;8.60;99.90;;;;;;5031896;28;20225;-85
2024/02/20 11:01:23;;;;;;;27.98;6.20;;;8.60;99.90;;;;;;5031310;28;20187;-86
2024/02/20 11:03:50;;;;;;;30.17;6.00;;;8.80;99.90;;;;;;5020088;28;20214;-85
2024/02/20 11:06:17;;;;;;;34.45;6.53;;;9.00;99.90;;;;;;5036492;28;20192;-85
2024/02/20 11:08:43;;;;;;;20.13;4.80;;;9.10;99.90;;;;;;5035370;28;20197;-85
2024/02/20 11:11:23;;;;;;;22.65;5.43;;;9.30;99.90;;;;;;5035423;28;20218;-85
2024/02/20 11:13:56;;;;;;;29.17;5.18;;;9.40;99.90;;;;;;5030451;28;20274;-86
2024/02/20 11:16:35;;;;;;;25.23;4.43;;;9.40;99.90;;;;;;5025914;28;20190;-86
2024/02/20 11:19:03;;;;;;;26.85;5.25;;;9.50;99.90;;;;;;5033052;28;20182;-83
2024/02/20 11:21:31;;;;;;;32.75;5.53;;;9.60;99.90;;;;;;5025208;28;20226;-84
2024/02/20 11:24:08;;;;;;;24.05;4.70;;;9.80;99.90;;;;;;5024861;28;20211;-86
2024/02/20 11:26:34;;;;;;;22.38;4.88;;;9.80;99.90;;;;;;5027861;28;20208;-86
2024/02/20 11:28:59;;;;;;;25.45;4.75;;;9.70;99.90;;;;;;5032833;28;20630;-85
2024/02/20 11:31:29;;;;;;;34.55;4.75;;;9.80;99.90;;;;;;5035056;28;20181;-85
2024/02/20 11:33:59;;;;;;;25.60;5.07;;;9.80;99.90;;;;;;5032803;28;20183;-87
2024/02/20 11:36:25;;;;;;;22.77;4.25;;;9.70;99.90;;;;;;5034326;28;20190;-84
2024/02/20 11:38:59;;;;;;;26.02;4.78;;;9.70;99.90;;;;;;5033827;28;20579;-85
2024/02/20 11:41:26;;;;;;;23.60;4.68;;;9.60;99.90;;;;;;5034217;28;20186;-86
2024/02/20 11:44:03;;;;;;;17.40;4.55;;;9.60;99.90;;;;;;5034360;28;20264;-87
2024/02/20 11:46:29;;;;;;;19.40;4.07;;;9.60;99.90;;;;;;5033480;28;20182;-85
2024/02/20 11:48:55;;;;;;;19.08;4.72;;;9.80;99.90;;;;;;5028440;28;20191;-84
2024/02/20 11:51:23;;;;;;;18.15;4.35;;;9.90;99.90;;;;;;5029706;28;20193;-85
2024/02/20 11:53:51;;;;;;;20.95;4.10;;;10.00;99.90;;;;;;5034028;28;20273;-83
2024/02/20 11:56:17;;;;;;;19.20;4.00;;;10.20;99.90;;;;;;5049321;28;20178;-86
2024/02/20 11:58:42;;;;;;;20.08;4.20;;;10.30;99.90;;;;;;5035019;28;20197;-85
2024/02/20 12:01:08;;;;;;;26.58;4.60;;;10.20;99.90;;;;;;5028301;28;20189;-86
2024/02/20 12:03:36;;;;;;;19.52;3.92;;;10.00;99.90;;;;;;5029213;28;20209;-84
2024/02/20 12:06:03;;;;;;;23.30;4.07;;;9.90;99.90;;;;;;5033821;28;20491;-85
2024/02/20 12:08:40;;;;;;;22.65;5.03;;;9.70;99.90;;;;;;5028800;28;20626;-84
2024/02/20 12:11:11;;;;;;;26.65;4.75;;;9.70;99.90;;;;;;5032160;28;20236;-84
2024/02/20 12:13:37;;;;;;;18.70;3.60;;;9.80;99.90;;;;;;5031918;28;20190;-85
2024/02/20 12:16:04;;;;;;;20.63;3.67;;;9.80;99.90;;;;;;5028634;28;20200;-85
2024/02/20 12:18:32;;;;;;;21.20;4.07;;;9.80;99.90;;;;;;5032787;28;20174;-85
2024/02/20 12:21:10;;;;;;;17.00;3.10;;;9.80;99.90;;;;;;5033068;28;20214;-85
2024/02/20 12:23:40;;;;;;;17.58;3.30;;;9.70;99.90;;;;;;5031597;28;20214;-85
2024/02/20 12:26:10;;;;;;;16.20;3.75;;;9.70;99.90;;;;;;5031734;28;20233;-85
2024/02/20 12:28:38;;;;;;;21.58;3.92;;;9.70;99.90;;;;;;5032113;28;20289;-84
2024/02/20 12:31:06;;;;;;;26.65;4.68;;;9.70;99.90;;;;;;5031880;28;20273;-83
2024/02/20 12:33:33;;;;;;;22.00;3.92;;;9.90;99.90;;;;;;5028043;28;20193;-83
2024/02/20 12:35:58;;;;;;;15.52;2.90;;;10.00;99.90;;;;;;5024275;28;20197;-83
2024/02/20 12:38:29;;;;;;;13.88;2.90;;;10.00;99.90;;;;;;5026225;28;20194;-84
2024/02/20 12:40:56;;;;;;;17.27;3.47;;;9.90;99.90;;;;;;5031714;28;20240;-85
2024/02/20 12:43:22;;;;;;;15.02;3.08;;;9.80;99.90;;;;;;5030688;28;20214;-84
2024/02/20 12:45:48;;;;;;;10.93;2.63;;;9.80;99.90;;;;;;5032193;28;20236;-85
2024/02/20 12:48:14;;;;;;;18.30;3.47;;;9.70;99.90;;;;;;5031864;28;20621;-84
2024/02/20 12:50:39;;;;;;;18.83;3.58;;;9.70;99.90;;;;;;5046835;28;20190;-83